createdAt,value
2023-01-11T00:03:08.402Z,100727.81
2023-01-11T00:08:01.784Z,100733.28
2023-01-11T00:12:55.071Z,100690.72
2023-01-11T00:17:50.880Z,100639.34
2023-01-11T00:22:45.740Z,100755.41
2023-01-11T00:27:39.141Z,100832.53
2023-01-11T00:32:32.393Z,100771.09
2023-01-11T00:37:25.711Z,100805.41
2023-01-11T00:42:37.768Z,100896.38
2023-01-11T00:47:48.504Z,100883.25
2023-01-11T00:52:41.931Z,100887.56
2023-01-11T00:57:36.680Z,100907.75
2023-01-11T01:02:30.049Z,100854.78
2023-01-11T01:07:23.405Z,100872.81
2023-01-11T01:12:36.644Z,100786.16
2023-01-11T01:17:33.588Z,100714.84
2023-01-11T01:22:26.991Z,100775.19
2023-01-11T01:27:20.445Z,100885.38
2023-01-11T01:32:13.850Z,100879.19
2023-01-11T01:37:09.800Z,100852.66
2023-01-11T01:42:03.212Z,100768.38
2023-01-11T01:46:56.797Z,100797.94
2023-01-11T01:51:56.257Z,100720.72
2023-01-11T01:56:54.266Z,100794.16
2023-01-11T02:01:49.078Z,100858.91
2023-01-11T02:06:43.558Z,100886.91
2023-01-11T02:11:43.416Z,100901.81
2023-01-11T02:16:38.439Z,100813.91
2023-01-11T02:21:45.218Z,100857.25
2023-01-11T02:27:12.162Z,100915.56
2023-01-11T02:32:21.168Z,100866.75
2023-01-11T02:37:27.744Z,100861.91
2023-01-11T02:42:47.037Z,100892.19
2023-01-11T02:47:50.548Z,100912.97
2023-01-11T02:52:52.830Z,100794.94
2023-01-11T02:57:47.678Z,100912.56
2023-01-11T03:02:42.511Z,100872.84
2023-01-11T03:07:55.142Z,100912.41
2023-01-11T03:13:01.728Z,100787.47
2023-01-11T03:18:08.889Z,100818.56
2023-01-11T03:23:15.592Z,100900.59
2023-01-11T03:28:18.589Z,100791.13
2023-01-11T03:33:22.728Z,100899.66
2023-01-11T03:38:24.707Z,100844.69
2023-01-11T03:43:22.223Z,100870.31
2023-01-11T03:48:23.695Z,100955.81
2023-01-11T03:53:23.925Z,100924.81
2023-01-11T03:58:17.495Z,100953.06
2023-01-11T04:03:12.806Z,100866.91
2023-01-11T04:08:12.875Z,100836.13
2023-01-11T04:13:06.351Z,100844.34
2023-01-11T04:18:04.876Z,100950.13
2023-01-11T04:23:00.413Z,100978.28
2023-01-11T04:27:55.345Z,100988.72
2023-01-11T04:32:51.037Z,100923.66
2023-01-11T04:37:53.188Z,100969.78
2023-01-11T04:42:48.051Z,100923.66
2023-01-11T04:47:47.909Z,100894.97
2023-01-11T04:52:44.175Z,100969.38
2023-01-11T04:57:37.630Z,100955.16
2023-01-11T05:02:30.954Z,100903.44
2023-01-11T05:07:25.824Z,101011.34
2023-01-11T05:12:21.150Z,100988.47
2023-01-11T05:17:20.719Z,100874.22
2023-01-11T05:22:14.254Z,100885.44
2023-01-11T05:27:09.489Z,101020.75
2023-01-11T05:32:03.007Z,101003.44
2023-01-11T05:37:05.247Z,101044.59
2023-01-11T05:41:58.882Z,100961.47
2023-01-11T05:46:58.675Z,101004.06
2023-01-11T05:51:52.048Z,100956.63
2023-01-11T05:56:45.293Z,100942.03
2023-01-11T06:01:39.465Z,101031.81
2023-01-11T06:06:34.620Z,101088.56
2023-01-11T06:11:27.980Z,100953.09
2023-01-11T06:16:23.838Z,100925.22
2023-01-11T06:21:18.388Z,101081.84
2023-01-11T06:26:15.231Z,101092.91
2023-01-11T06:31:08.718Z,101034.00
2023-01-11T06:36:06.315Z,101062.72
2023-01-11T06:41:01.582Z,101106.56
2023-01-11T06:45:59.102Z,101068.72
2023-01-11T06:50:54.796Z,101114.88
2023-01-11T06:55:51.418Z,101114.66
2023-01-11T07:00:44.696Z,101102.19
2023-01-11T07:05:39.945Z,101123.91
2023-01-11T07:10:33.211Z,101140.91
2023-01-11T07:15:26.467Z,101157.16
2023-01-11T07:20:19.962Z,101153.81
2023-01-11T07:25:14.777Z,101074.38
2023-01-11T07:30:10.064Z,101127.75
2023-01-11T07:35:03.597Z,101205.22
2023-01-11T07:39:56.981Z,101199.25
2023-01-11T07:44:51.790Z,101074.31
2023-01-11T07:49:45.080Z,101143.25
2023-01-11T07:54:38.421Z,101111.50
2023-01-11T07:59:31.706Z,101225.41
2023-01-11T08:04:32.540Z,101214.31
2023-01-11T08:09:26.841Z,100987.16
2023-01-11T08:14:41.890Z,101162.78
2023-01-11T08:19:39.218Z,101245.31
2023-01-11T08:24:34.135Z,101142.81
2023-01-11T08:29:48.037Z,101070.69
2023-01-11T08:34:45.230Z,101075.78
2023-01-11T08:39:38.566Z,101060.38
2023-01-11T08:44:37.645Z,101210.97
2023-01-11T08:49:34.237Z,101169.88
2023-01-11T08:54:29.373Z,101186.19
2023-01-11T08:59:23.326Z,101133.97
2023-01-11T09:04:24.592Z,101291.84
2023-01-11T09:09:20.483Z,101272.75
2023-01-11T09:14:28.342Z,101087.53
2023-01-11T09:19:23.037Z,101117.41
2023-01-11T09:24:25.228Z,101302.34
2023-01-11T09:29:23.431Z,101087.66
2023-01-11T09:34:21.267Z,101311.28
2023-01-11T09:39:18.713Z,101251.50
2023-01-11T09:44:19.089Z,101313.03
2023-01-11T09:49:45.974Z,101317.06
2023-01-11T09:54:40.593Z,101161.31
2023-01-11T10:00:41.568Z,101115.88
2023-01-11T10:05:58.782Z,101167.06
2023-01-11T10:18:28.383Z,101327.22
2023-01-11T10:21:49.592Z,101136.78
2023-01-11T10:26:43.115Z,101168.63
2023-01-11T10:31:56.026Z,101276.56
2023-01-11T10:37:17.240Z,101092.69
2023-01-11T10:42:18.580Z,101124.78
2023-01-11T10:47:52.700Z,101154.97
2023-01-11T10:52:58.986Z,101141.41
2023-01-11T10:58:04.384Z,101333.25
2023-01-11T11:03:20.350Z,101159.16
2023-01-11T11:08:22.641Z,101312.31
2023-01-11T11:13:22.595Z,101316.41
2023-01-11T11:18:18.715Z,101298.13
2023-01-11T11:23:16.996Z,101207.38
2023-01-11T11:28:26.782Z,101338.50
2023-01-11T11:33:23.849Z,101341.16
2023-01-11T11:38:25.319Z,101340.09
2023-01-11T11:43:24.156Z,101324.66
2023-01-11T11:48:23.153Z,101316.66
2023-01-11T11:53:41.207Z,101293.09
2023-01-11T11:58:35.574Z,101285.38
2023-01-11T12:03:33.351Z,101345.19
2023-01-11T12:08:27.197Z,101347.84
2023-01-11T12:13:32.825Z,101240.69
2023-01-11T12:18:35.930Z,101342.53
2023-01-11T12:23:37.406Z,101293.78
2023-01-11T12:28:48.280Z,101312.22
2023-01-11T12:33:48.703Z,101338.84
2023-01-11T12:38:59.834Z,101333.00
2023-01-11T12:44:23.500Z,101310.28
2023-01-11T12:49:36.034Z,101100.56
2023-01-11T12:54:48.246Z,101225.97
2023-01-11T13:00:01.494Z,101293.75
2023-01-11T13:05:09.319Z,101334.69
2023-01-11T13:10:30.035Z,101225.25
2023-01-11T13:15:34.736Z,101266.91
2023-01-11T13:20:59.267Z,101277.56
2023-01-11T13:26:02.220Z,101279.63
2023-01-11T13:30:58.494Z,101342.44
2023-01-11T13:35:56.822Z,101274.16
2023-01-11T13:40:58.951Z,101221.97
2023-01-11T13:46:05.848Z,101371.28
2023-01-11T13:51:07.661Z,101268.19
2023-01-11T13:56:08.210Z,101317.63
2023-01-11T14:01:07.917Z,101412.75
2023-01-11T14:06:15.090Z,101341.56
2023-01-11T14:11:20.816Z,101362.81
2023-01-11T14:16:22.819Z,101386.53
2023-01-11T14:21:23.534Z,101264.53
2023-01-11T14:26:56.401Z,101204.94
2023-01-11T14:32:15.553Z,101428.13
2023-01-11T14:37:28.902Z,101237.66
2023-01-11T14:43:02.304Z,101402.69
2023-01-11T14:48:15.816Z,101365.00
2023-01-11T14:53:15.685Z,101416.72
2023-01-11T14:58:19.091Z,101449.47
2023-01-11T15:03:48.887Z,101484.19
2023-01-11T15:08:50.135Z,101438.69
2023-01-11T15:13:49.097Z,101475.34
2023-01-11T15:18:46.879Z,101273.34
2023-01-11T15:23:50.555Z,101491.75
2023-01-11T15:28:54.568Z,101400.78
2023-01-11T15:33:51.084Z,101417.81
2023-01-11T15:38:52.225Z,101451.97
2023-01-11T15:44:19.837Z,101388.69
2023-01-11T15:49:42.289Z,101374.53
2023-01-11T15:55:09.851Z,101369.66
2023-01-11T16:00:33.909Z,101492.81
2023-01-11T16:05:31.663Z,101516.16
2023-01-11T16:11:08.623Z,101507.56
2023-01-11T16:16:19.791Z,101513.66
2023-01-11T16:21:19.937Z,101309.84
2023-01-11T16:26:20.558Z,101436.97
2023-01-11T16:31:26.080Z,101513.41
2023-01-11T16:36:26.934Z,101477.19
2023-01-11T16:41:22.051Z,101474.97
2023-01-11T16:46:52.792Z,101463.25
2023-01-11T16:51:48.572Z,101544.72
2023-01-11T16:56:49.589Z,101567.75
2023-01-11T17:02:15.071Z,101583.25
2023-01-11T17:07:15.291Z,101522.28
2023-01-11T17:12:19.037Z,101581.91
2023-01-11T17:17:15.364Z,101556.75
2023-01-11T17:22:15.780Z,101577.91
2023-01-11T17:27:19.276Z,101374.00
2023-01-11T17:32:22.706Z,101478.88
2023-01-11T17:37:18.051Z,101464.63
2023-01-11T17:42:45.237Z,101501.19
2023-01-11T17:47:46.839Z,101614.91
2023-01-11T17:52:54.047Z,101569.31
2023-01-11T17:58:12.669Z,101615.97
2023-01-11T18:03:14.529Z,101571.88
2023-01-11T18:08:18.327Z,101622.94
2023-01-11T18:13:25.352Z,101626.41
2023-01-11T18:18:42.730Z,101589.16
2023-01-11T18:23:36.214Z,101633.38
2023-01-11T18:28:32.350Z,101629.97
2023-01-11T18:33:33.728Z,101587.91
2023-01-11T18:38:33.398Z,101514.34
2023-01-11T18:43:33.809Z,101638.13
2023-01-11T18:48:30.369Z,101532.47
2023-01-11T18:53:24.705Z,101613.09
2023-01-11T18:58:21.211Z,101628.56
2023-01-11T19:08:13.919Z,101674.38
2023-01-11T19:13:07.394Z,101568.50
2023-01-11T19:18:03.398Z,101616.94
2023-01-11T19:22:57.040Z,101562.88
2023-01-11T19:27:50.639Z,101683.25
2023-01-11T19:32:44.213Z,101695.22
2023-01-11T19:37:39.644Z,101690.13
2023-01-11T19:42:33.417Z,101671.50
2023-01-11T19:47:29.171Z,101702.16
2023-01-11T19:52:22.628Z,101671.66
2023-01-11T19:57:20.795Z,101679.44
2023-01-11T20:02:17.512Z,101647.25
2023-01-11T20:07:12.392Z,101448.81
2023-01-11T20:12:09.239Z,101587.94
2023-01-11T20:17:04.143Z,101671.06
2023-01-11T20:22:00.542Z,101688.94
2023-01-11T20:26:57.909Z,101661.00
2023-01-11T20:31:51.536Z,101720.41
2023-01-11T20:36:49.129Z,101715.25
2023-01-11T20:41:48.666Z,101711.81
2023-01-11T20:46:42.207Z,101658.47
2023-01-11T20:51:36.156Z,101681.41
2023-01-11T20:56:33.188Z,101632.19
2023-01-11T21:01:26.791Z,101635.75
2023-01-11T21:06:20.345Z,101745.22
2023-01-11T21:11:16.376Z,101657.09
2023-01-11T21:16:13.261Z,101718.91
2023-01-11T21:21:07.239Z,101686.81
2023-01-11T21:26:00.606Z,101636.75
2023-01-11T21:30:53.985Z,101754.69
2023-01-11T21:35:49.927Z,101631.53
2023-01-11T21:40:43.416Z,101694.41
2023-01-11T21:45:36.793Z,101760.84
2023-01-11T21:50:30.006Z,101713.31
2023-01-11T21:55:26.970Z,101755.72
2023-01-11T22:00:23.720Z,101768.63
2023-01-11T22:05:17.153Z,101738.94
2023-01-11T22:10:12.453Z,101664.34
2023-01-11T22:15:08.673Z,101643.06
2023-01-11T22:20:03.837Z,101753.50
2023-01-11T22:24:57.524Z,101727.22
2023-01-11T22:29:52.210Z,101702.59
2023-01-11T22:34:46.894Z,101721.94
2023-01-11T22:39:40.728Z,101744.19
2023-01-11T22:44:34.466Z,101694.19
2023-01-11T22:49:27.690Z,101615.22
2023-01-11T22:54:23.060Z,101773.94
2023-01-11T22:59:16.246Z,101751.84
2023-01-11T23:04:13.694Z,101738.31
2023-01-11T23:09:09.470Z,101791.88
2023-01-11T23:14:05.082Z,101766.19
2023-01-11T23:18:58.774Z,101767.06
2023-01-11T23:23:52.088Z,101751.78
2023-01-11T23:28:49.643Z,101708.47
2023-01-11T23:33:44.875Z,101756.00
2023-01-11T23:38:38.113Z,101682.03
2023-01-11T23:43:31.387Z,101568.25
2023-01-11T23:48:30.588Z,101654.72
2023-01-11T23:53:25.142Z,101690.53
2023-01-11T23:58:19.745Z,101598.03
